sensor_id;sensor_type;location;lat;lon;timestamp;P1;durP1;ratioP1;P2;durP2;ratioP2
795;SDS011;381;48.770;9.188;2023-12-20T00:05:00;2.43;;;2.20;;
795;SDS011;381;48.770;9.188;2023-12-20T00:10:04;2.10;;;2.00;;
795;SDS011;381;48.770;9.188;2023-12-20T00:15:08;2.60;;;2.40;;
795;SDS011;381;48.770;9.188;2023-12-20T00:20:10;2.30;;;2.10;;
795;SDS011;381;48.770;9.188;2023-12-20T00:25:14;2.23;;;2.00;;
795;SDS011;381;48.770;9.188;2023-12-20T00:30:17;2.10;;;2.00;;
795;SDS011;381;48.770;9.188;2023-12-20T00:35:19;2.60;;;2.50;;
795;SDS011;381;48.770;9.188;2023-12-20T00:40:23;2.47;;;2.37;;
795;SDS011;381;48.770;9.188;2023-12-20T00:45:26;2.70;;;2.60;;
795;SDS011;381;48.770;9.188;2023-12-20T00:50:28;3.20;;;2.70;;
795;SDS011;381;48.770;9.188;2023-12-20T00:55:32;3.33;;;2.77;;
795;SDS011;381;48.770;9.188;2023-12-20T01:00:34;3.90;;;3.60;;
795;SDS011;381;48.770;9.188;2023-12-20T01:05:36;3.63;;;3.43;;
795;SDS011;381;48.770;9.188;2023-12-20T01:10:40;3.83;;;3.63;;
795;SDS011;381;48.770;9.188;2023-12-20T01:15:42;4.20;;;4.00;;
795;SDS011;381;48.770;9.188;2023-12-20T01:20:45;4.70;;;4.50;;
795;SDS011;381;48.770;9.188;2023-12-20T01:25:49;5.60;;;5.30;;
795;SDS011;381;48.770;9.188;2023-12-20T01:30:51;5.20;;;5.00;;
795;SDS011;381;48.770;9.188;2023-12-20T01:35:53;5.23;;;5.03;;
795;SDS011;381;48.770;9.188;2023-12-20T01:40:57;5.43;;;5.13;;
795;SDS011;381;48.770;9.188;2023-12-20T01:45:59;6.20;;;5.90;;
795;SDS011;381;48.770;9.188;2023-12-20T01:51:02;6.30;;;6.00;;
795;SDS011;381;48.770;9.188;2023-12-20T01:56:06;6.17;;;5.97;;
795;SDS011;381;48.770;9.188;2023-12-20T02:01:09;6.40;;;6.10;;
795;SDS011;381;48.770;9.188;2023-12-20T02:06:14;6.50;;;6.30;;
795;SDS011;381;48.770;9.188;2023-12-20T02:11:18;6.17;;;5.97;;
795;SDS011;381;48.770;9.188;2023-12-20T02:16:20;6.10;;;5.90;;
795;SDS011;381;48.770;9.188;2023-12-20T02:21:25;6.70;;;6.40;;
795;SDS011;381;48.770;9.188;2023-12-20T02:26:34;6.60;;;6.30;;
795;SDS011;381;48.770;9.188;2023-12-20T02:31:37;7.10;;;6.80;;
795;SDS011;381;48.770;9.188;2023-12-20T02:36:40;7.70;;;7.40;;
795;SDS011;381;48.770;9.188;2023-12-20T02:41:43;7.60;;;7.10;;
795;SDS011;381;48.770;9.188;2023-12-20T02:46:45;7.77;;;7.37;;
795;SDS011;381;48.770;9.188;2023-12-20T02:51:49;7.67;;;7.37;;
795;SDS011;381;48.770;9.188;2023-12-20T02:56:51;6.97;;;6.67;;
795;SDS011;381;48.770;9.188;2023-12-20T03:01:54;8.27;;;7.93;;
795;SDS011;381;48.770;9.188;2023-12-20T03:06:57;7.70;;;7.30;;
795;SDS011;381;48.770;9.188;2023-12-20T03:12:00;8.10;;;7.70;;
795;SDS011;381;48.770;9.188;2023-12-20T03:17:02;8.60;;;8.10;;
795;SDS011;381;48.770;9.188;2023-12-20T03:22:06;7.90;;;7.30;;
795;SDS011;381;48.770;9.188;2023-12-20T03:27:08;7.37;;;7.10;;
795;SDS011;381;48.770;9.188;2023-12-20T03:32:10;8.10;;;7.80;;
795;SDS011;381;48.770;9.188;2023-12-20T03:37:14;6.97;;;6.67;;
795;SDS011;381;48.770;9.188;2023-12-20T03:42:16;7.30;;;7.00;;
795;SDS011;381;48.770;9.188;2023-12-20T03:47:19;7.30;;;7.00;;
795;SDS011;381;48.770;9.188;2023-12-20T03:52:22;6.87;;;6.60;;
795;SDS011;381;48.770;9.188;2023-12-20T03:57:25;7.20;;;7.00;;
795;SDS011;381;48.770;9.188;2023-12-20T04:02:27;7.00;;;6.80;;
795;SDS011;381;48.770;9.188;2023-12-20T04:07:31;7.80;;;7.50;;
795;SDS011;381;48.770;9.188;2023-12-20T04:12:33;8.17;;;7.87;;
795;SDS011;381;48.770;9.188;2023-12-20T04:17:36;6.73;;;6.53;;
795;SDS011;381;48.770;9.188;2023-12-20T04:22:39;7.43;;;7.23;;
795;SDS011;381;48.770;9.188;2023-12-20T04:27:43;7.27;;;7.07;;
795;SDS011;381;48.770;9.188;2023-12-20T04:32:45;7.17;;;6.97;;
795;SDS011;381;48.770;9.188;2023-12-20T04:37:49;8.60;;;8.30;;
795;SDS011;381;48.770;9.188;2023-12-20T04:42:51;7.17;;;6.97;;
795;SDS011;381;48.770;9.188;2023-12-20T04:47:53;6.93;;;6.73;;
795;SDS011;381;48.770;9.188;2023-12-20T04:52:58;8.80;;;8.50;;
795;SDS011;381;48.770;9.188;2023-12-20T04:58:00;8.03;;;7.63;;
795;SDS011;381;48.770;9.188;2023-12-20T05:03:02;7.57;;;7.37;;
795;SDS011;381;48.770;9.188;2023-12-20T05:08:07;7.73;;;7.40;;
795;SDS011;381;48.770;9.188;2023-12-20T05:13:09;7.50;;;7.30;;
795;SDS011;381;48.770;9.188;2023-12-20T05:18:11;7.10;;;6.90;;
795;SDS011;381;48.770;9.188;2023-12-20T05:23:15;6.40;;;6.20;;
795;SDS011;381;48.770;9.188;2023-12-20T05:28:17;7.00;;;6.80;;
795;SDS011;381;48.770;9.188;2023-12-20T05:33:20;6.40;;;6.20;;
795;SDS011;381;48.770;9.188;2023-12-20T05:38:23;7.37;;;6.97;;
795;SDS011;381;48.770;9.188;2023-12-20T05:43:26;5.50;;;5.30;;
795;SDS011;381;48.770;9.188;2023-12-20T05:48:28;7.07;;;6.87;;
795;SDS011;381;48.770;9.188;2023-12-20T05:53:32;7.40;;;7.00;;
795;SDS011;381;48.770;9.188;2023-12-20T05:58:34;7.37;;;7.17;;
795;SDS011;381;48.770;9.188;2023-12-20T06:03:37;7.20;;;6.90;;
795;SDS011;381;48.770;9.188;2023-12-20T06:08:43;7.00;;;6.80;;
795;SDS011;381;48.770;9.188;2023-12-20T06:13:45;7.00;;;6.70;;
795;SDS011;381;48.770;9.188;2023-12-20T06:18:49;6.70;;;6.50;;
795;SDS011;381;48.770;9.188;2023-12-20T06:23:53;6.13;;;5.93;;
795;SDS011;381;48.770;9.188;2023-12-20T06:28:55;7.57;;;7.27;;
795;SDS011;381;48.770;9.188;2023-12-20T06:33:58;7.47;;;7.20;;
795;SDS011;381;48.770;9.188;2023-12-20T06:39:02;6.17;;;5.87;;
795;SDS011;381;48.770;9.188;2023-12-20T06:44:05;6.60;;;6.30;;
795;SDS011;381;48.770;9.188;2023-12-20T06:49:07;6.77;;;6.47;;
795;SDS011;381;48.770;9.188;2023-12-20T06:54:11;6.17;;;5.97;;
795;SDS011;381;48.770;9.188;2023-12-20T06:59:13;7.13;;;6.70;;
795;SDS011;381;48.770;9.188;2023-12-20T07:04:16;5.20;;;5.00;;
795;SDS011;381;48.770;9.188;2023-12-20T07:09:22;6.17;;;5.97;;
795;SDS011;381;48.770;9.188;2023-12-20T07:14:24;7.03;;;6.83;;
795;SDS011;381;48.770;9.188;2023-12-20T07:19:27;5.60;;;5.40;;
795;SDS011;381;48.770;9.188;2023-12-20T07:24:30;6.63;;;6.37;;
795;SDS011;381;48.770;9.188;2023-12-20T07:29:33;6.80;;;6.50;;
795;SDS011;381;48.770;9.188;2023-12-20T07:34:35;6.17;;;5.97;;
795;SDS011;381;48.770;9.188;2023-12-20T07:39:39;7.00;;;6.60;;
795;SDS011;381;48.770;9.188;2023-12-20T07:44:41;8.03;;;7.63;;
795;SDS011;381;48.770;9.188;2023-12-20T07:49:44;8.27;;;7.87;;
795;SDS011;381;48.770;9.188;2023-12-20T07:54:48;8.80;;;8.30;;
795;SDS011;381;48.770;9.188;2023-12-20T07:59:50;10.27;;;9.57;;
795;SDS011;381;48.770;9.188;2023-12-20T08:04:52;11.20;;;10.30;;
795;SDS011;381;48.770;9.188;2023-12-20T08:09:56;9.13;;;8.63;;
795;SDS011;381;48.770;9.188;2023-12-20T08:14:58;7.60;;;7.00;;
795;SDS011;381;48.770;9.188;2023-12-20T08:20:01;12.47;;;8.20;;
795;SDS011;381;48.770;9.188;2023-12-20T08:25:05;8.47;;;7.97;;
795;SDS011;381;48.770;9.188;2023-12-20T08:30:08;8.27;;;7.77;;
795;SDS011;381;48.770;9.188;2023-12-20T08:35:11;6.87;;;6.37;;
795;SDS011;381;48.770;9.188;2023-12-20T08:40:15;7.30;;;6.70;;
795;SDS011;381;48.770;9.188;2023-12-20T08:45:17;6.57;;;5.90;;
795;SDS011;381;48.770;9.188;2023-12-20T08:50:19;7.47;;;6.77;;
795;SDS011;381;48.770;9.188;2023-12-20T08:55:23;6.27;;;5.87;;
795;SDS011;381;48.770;9.188;2023-12-20T09:00:27;5.90;;;5.40;;
795;SDS011;381;48.770;9.188;2023-12-20T09:05:30;8.83;;;5.70;;
795;SDS011;381;48.770;9.188;2023-12-20T09:10:34;9.93;;;5.90;;
795;SDS011;381;48.770;9.188;2023-12-20T09:15:36;6.13;;;5.73;;
795;SDS011;381;48.770;9.188;2023-12-20T09:20:39;6.63;;;5.53;;
795;SDS011;381;48.770;9.188;2023-12-20T09:25:43;5.43;;;4.70;;
795;SDS011;381;48.770;9.188;2023-12-20T09:30:45;5.33;;;4.90;;
795;SDS011;381;48.770;9.188;2023-12-20T09:35:48;6.47;;;5.87;;
795;SDS011;381;48.770;9.188;2023-12-20T09:40:52;4.43;;;3.90;;
795;SDS011;381;48.770;9.188;2023-12-20T09:45:54;3.60;;;3.27;;
795;SDS011;381;48.770;9.188;2023-12-20T09:51:03;7.07;;;3.60;;
795;SDS011;381;48.770;9.188;2023-12-20T09:56:07;3.00;;;2.63;;
795;SDS011;381;48.770;9.188;2023-12-20T10:01:09;7.90;;;3.50;;
795;SDS011;381;48.770;9.188;2023-12-20T10:06:12;6.60;;;2.93;;
795;SDS011;381;48.770;9.188;2023-12-20T10:11:16;4.80;;;3.00;;
795;SDS011;381;48.770;9.188;2023-12-20T10:16:23;3.27;;;2.77;;
795;SDS011;381;48.770;9.188;2023-12-20T10:21:26;3.90;;;2.47;;
795;SDS011;381;48.770;9.188;2023-12-20T10:26:30;3.57;;;2.07;;
795;SDS011;381;48.770;9.188;2023-12-20T10:31:33;3.57;;;2.10;;
795;SDS011;381;48.770;9.188;2023-12-20T10:36:36;3.20;;;2.70;;
795;SDS011;381;48.770;9.188;2023-12-20T10:41:40;2.70;;;2.40;;
795;SDS011;381;48.770;9.188;2023-12-20T10:46:45;4.23;;;2.40;;
795;SDS011;381;48.770;9.188;2023-12-20T10:51:52;3.47;;;2.40;;
795;SDS011;381;48.770;9.188;2023-12-20T10:56:59;3.90;;;1.90;;
795;SDS011;381;48.770;9.188;2023-12-20T11:02:02;3.13;;;2.83;;
795;SDS011;381;48.770;9.188;2023-12-20T11:07:08;3.23;;;2.10;;
795;SDS011;381;48.770;9.188;2023-12-20T11:12:21;4.77;;;2.47;;
795;SDS011;381;48.770;9.188;2023-12-20T11:17:31;3.80;;;2.73;;
795;SDS011;381;48.770;9.188;2023-12-20T11:22:33;3.60;;;1.97;;
795;SDS011;381;48.770;9.188;2023-12-20T11:27:40;2.50;;;2.30;;
795;SDS011;381;48.770;9.188;2023-12-20T11:32:43;2.27;;;1.97;;
795;SDS011;381;48.770;9.188;2023-12-20T11:37:48;5.60;;;2.20;;
795;SDS011;381;48.770;9.188;2023-12-20T11:42:51;4.67;;;2.50;;
795;SDS011;381;48.770;9.188;2023-12-20T11:47:55;5.90;;;2.43;;
795;SDS011;381;48.770;9.188;2023-12-20T11:52:58;3.43;;;2.30;;
795;SDS011;381;48.770;9.188;2023-12-20T11:58:02;8.03;;;2.40;;
795;SDS011;381;48.770;9.188;2023-12-20T12:03:05;2.60;;;2.40;;
795;SDS011;381;48.770;9.188;2023-12-20T12:08:07;4.13;;;2.23;;
795;SDS011;381;48.770;9.188;2023-12-20T12:13:11;6.00;;;2.47;;
795;SDS011;381;48.770;9.188;2023-12-20T12:18:15;3.07;;;2.60;;
795;SDS011;381;48.770;9.188;2023-12-20T12:23:22;6.03;;;2.30;;
795;SDS011;381;48.770;9.188;2023-12-20T12:28:27;3.27;;;2.43;;
795;SDS011;381;48.770;9.188;2023-12-20T12:33:30;4.47;;;2.43;;
795;SDS011;381;48.770;9.188;2023-12-20T12:38:32;5.90;;;2.50;;
795;SDS011;381;48.770;9.188;2023-12-20T12:43:36;3.73;;;1.80;;
795;SDS011;381;48.770;9.188;2023-12-20T12:48:38;3.80;;;2.40;;
795;SDS011;381;48.770;9.188;2023-12-20T12:53:41;2.10;;;1.90;;
795;SDS011;381;48.770;9.188;2023-12-20T12:58:44;2.60;;;2.37;;
795;SDS011;381;48.770;9.188;2023-12-20T13:03:47;4.47;;;2.50;;
795;SDS011;381;48.770;9.188;2023-12-20T13:08:49;3.23;;;2.73;;
795;SDS011;381;48.770;9.188;2023-12-20T13:13:53;4.80;;;2.27;;
795;SDS011;381;48.770;9.188;2023-12-20T13:18:55;3.33;;;2.23;;
795;SDS011;381;48.770;9.188;2023-12-20T13:23:59;3.03;;;2.20;;
795;SDS011;381;48.770;9.188;2023-12-20T13:29:03;8.03;;;3.00;;
795;SDS011;381;48.770;9.188;2023-12-20T13:34:06;3.77;;;2.27;;
795;SDS011;381;48.770;9.188;2023-12-20T13:39:08;2.50;;;1.80;;
795;SDS011;381;48.770;9.188;2023-12-20T13:44:12;3.63;;;1.83;;
795;SDS011;381;48.770;9.188;2023-12-20T13:49:15;3.77;;;2.00;;
795;SDS011;381;48.770;9.188;2023-12-20T13:54:17;3.13;;;1.77;;
795;SDS011;381;48.770;9.188;2023-12-20T13:59:23;2.23;;;1.97;;
795;SDS011;381;48.770;9.188;2023-12-20T14:04:26;2.00;;;1.73;;
795;SDS011;381;48.770;9.188;2023-12-20T14:09:29;4.10;;;1.87;;
795;SDS011;381;48.770;9.188;2023-12-20T14:14:32;2.07;;;1.80;;
795;SDS011;381;48.770;9.188;2023-12-20T14:19:35;2.73;;;1.73;;
795;SDS011;381;48.770;9.188;2023-12-20T14:24:37;3.50;;;1.90;;
795;SDS011;381;48.770;9.188;2023-12-20T14:29:41;3.70;;;1.90;;
795;SDS011;381;48.770;9.188;2023-12-20T14:34:43;6.60;;;1.90;;
795;SDS011;381;48.770;9.188;2023-12-20T14:39:46;3.07;;;2.00;;
795;SDS011;381;48.770;9.188;2023-12-20T14:44:49;3.70;;;2.00;;
795;SDS011;381;48.770;9.188;2023-12-20T14:49:52;4.53;;;2.20;;
795;SDS011;381;48.770;9.188;2023-12-20T14:54:55;4.40;;;2.20;;
795;SDS011;381;48.770;9.188;2023-12-20T14:59:59;3.20;;;1.90;;
795;SDS011;381;48.770;9.188;2023-12-20T15:05:01;2.87;;;1.67;;
795;SDS011;381;48.770;9.188;2023-12-20T15:10:04;4.53;;;2.03;;
795;SDS011;381;48.770;9.188;2023-12-20T15:15:09;6.07;;;2.20;;
795;SDS011;381;48.770;9.188;2023-12-20T15:20:11;4.07;;;2.10;;
795;SDS011;381;48.770;9.188;2023-12-20T15:25:14;4.13;;;2.07;;
795;SDS011;381;48.770;9.188;2023-12-20T15:30:23;2.13;;;1.87;;
795;SDS011;381;48.770;9.188;2023-12-20T15:35:25;2.97;;;1.97;;
795;SDS011;381;48.770;9.188;2023-12-20T15:40:27;4.43;;;2.03;;
795;SDS011;381;48.770;9.188;2023-12-20T15:45:31;2.77;;;1.80;;
795;SDS011;381;48.770;9.188;2023-12-20T15:50:34;4.00;;;1.80;;
795;SDS011;381;48.770;9.188;2023-12-20T15:55:36;3.80;;;2.57;;
795;SDS011;381;48.770;9.188;2023-12-20T16:00:40;6.30;;;2.30;;
795;SDS011;381;48.770;9.188;2023-12-20T16:05:43;2.60;;;2.07;;
795;SDS011;381;48.770;9.188;2023-12-20T16:10:45;3.03;;;1.70;;
795;SDS011;381;48.770;9.188;2023-12-20T16:15:49;3.87;;;2.10;;
795;SDS011;381;48.770;9.188;2023-12-20T16:20:51;4.57;;;2.10;;
795;SDS011;381;48.770;9.188;2023-12-20T16:25:54;8.53;;;2.33;;
795;SDS011;381;48.770;9.188;2023-12-20T16:30:57;2.60;;;2.40;;
795;SDS011;381;48.770;9.188;2023-12-20T16:36:00;3.33;;;2.30;;
795;SDS011;381;48.770;9.188;2023-12-20T16:41:02;5.17;;;2.90;;
795;SDS011;381;48.770;9.188;2023-12-20T16:46:07;3.27;;;2.10;;
795;SDS011;381;48.770;9.188;2023-12-20T16:51:09;2.77;;;2.30;;
795;SDS011;381;48.770;9.188;2023-12-20T16:56:12;3.37;;;2.83;;
795;SDS011;381;48.770;9.188;2023-12-20T17:01:15;5.67;;;4.17;;
795;SDS011;381;48.770;9.188;2023-12-20T17:06:18;3.20;;;2.90;;
795;SDS011;381;48.770;9.188;2023-12-20T17:11:21;2.47;;;2.27;;
795;SDS011;381;48.770;9.188;2023-12-20T17:16:24;1.90;;;1.73;;
795;SDS011;381;48.770;9.188;2023-12-20T17:21:27;2.10;;;1.93;;
795;SDS011;381;48.770;9.188;2023-12-20T17:26:30;3.00;;;2.73;;
795;SDS011;381;48.770;9.188;2023-12-20T17:31:33;3.10;;;2.50;;
795;SDS011;381;48.770;9.188;2023-12-20T17:36:36;3.83;;;2.37;;
795;SDS011;381;48.770;9.188;2023-12-20T17:41:39;2.57;;;1.67;;
795;SDS011;381;48.770;9.188;2023-12-20T17:46:43;2.30;;;2.10;;
795;SDS011;381;48.770;9.188;2023-12-20T17:51:45;4.00;;;2.20;;
795;SDS011;381;48.770;9.188;2023-12-20T17:56:48;3.93;;;2.23;;
795;SDS011;381;48.770;9.188;2023-12-20T18:01:52;2.10;;;2.00;;
795;SDS011;381;48.770;9.188;2023-12-20T18:06:54;3.23;;;2.60;;
795;SDS011;381;48.770;9.188;2023-12-20T18:11:56;2.63;;;2.43;;
795;SDS011;381;48.770;9.188;2023-12-20T18:17:00;3.33;;;2.67;;
795;SDS011;381;48.770;9.188;2023-12-20T18:22:03;3.33;;;3.00;;
795;SDS011;381;48.770;9.188;2023-12-20T18:27:05;3.50;;;1.93;;
795;SDS011;381;48.770;9.188;2023-12-20T18:32:09;2.30;;;2.10;;
795;SDS011;381;48.770;9.188;2023-12-20T18:37:12;3.07;;;2.10;;
795;SDS011;381;48.770;9.188;2023-12-20T18:42:14;4.63;;;2.03;;
795;SDS011;381;48.770;9.188;2023-12-20T18:47:18;2.60;;;2.37;;
795;SDS011;381;48.770;9.188;2023-12-20T18:52:20;3.33;;;2.40;;
795;SDS011;381;48.770;9.188;2023-12-20T18:57:23;3.13;;;2.10;;
795;SDS011;381;48.770;9.188;2023-12-20T19:02:27;4.20;;;2.50;;
795;SDS011;381;48.770;9.188;2023-12-20T19:07:31;2.13;;;2.03;;
795;SDS011;381;48.770;9.188;2023-12-20T19:12:33;3.17;;;2.47;;
795;SDS011;381;48.770;9.188;2023-12-20T19:17:37;5.00;;;2.80;;
795;SDS011;381;48.770;9.188;2023-12-20T19:22:39;5.70;;;3.20;;
795;SDS011;381;48.770;9.188;2023-12-20T19:27:42;5.63;;;2.73;;
795;SDS011;381;48.770;9.188;2023-12-20T19:32:46;4.27;;;2.73;;
795;SDS011;381;48.770;9.188;2023-12-20T19:37:48;4.00;;;2.27;;
795;SDS011;381;48.770;9.188;2023-12-20T19:42:51;2.37;;;2.17;;
795;SDS011;381;48.770;9.188;2023-12-20T19:47:54;3.13;;;2.47;;
795;SDS011;381;48.770;9.188;2023-12-20T19:52:57;4.37;;;2.60;;
795;SDS011;381;48.770;9.188;2023-12-20T19:58:00;4.67;;;3.13;;
795;SDS011;381;48.770;9.188;2023-12-20T20:03:03;2.77;;;2.17;;
795;SDS011;381;48.770;9.188;2023-12-20T20:08:06;4.13;;;2.83;;
795;SDS011;381;48.770;9.188;2023-12-20T20:13:08;4.50;;;2.70;;
795;SDS011;381;48.770;9.188;2023-12-20T20:18:13;3.53;;;2.60;;
795;SDS011;381;48.770;9.188;2023-12-20T20:23:15;4.10;;;2.30;;
795;SDS011;381;48.770;9.188;2023-12-20T20:28:18;3.73;;;2.80;;
795;SDS011;381;48.770;9.188;2023-12-20T20:33:21;3.53;;;3.23;;
795;SDS011;381;48.770;9.188;2023-12-20T20:38:24;2.77;;;2.43;;
795;SDS011;381;48.770;9.188;2023-12-20T20:43:26;4.30;;;2.40;;
795;SDS011;381;48.770;9.188;2023-12-20T20:48:30;2.67;;;2.47;;
795;SDS011;381;48.770;9.188;2023-12-20T20:53:32;2.97;;;2.57;;
795;SDS011;381;48.770;9.188;2023-12-20T20:58:35;5.80;;;2.23;;
795;SDS011;381;48.770;9.188;2023-12-20T21:03:39;2.57;;;2.37;;
795;SDS011;381;48.770;9.188;2023-12-20T21:08:41;3.63;;;2.40;;
795;SDS011;381;48.770;9.188;2023-12-20T21:13:44;2.33;;;2.13;;
795;SDS011;381;48.770;9.188;2023-12-20T21:18:49;3.50;;;2.70;;
795;SDS011;381;48.770;9.188;2023-12-20T21:23:52;3.00;;;2.40;;
795;SDS011;381;48.770;9.188;2023-12-20T21:28:54;3.40;;;2.30;;
795;SDS011;381;48.770;9.188;2023-12-20T21:33:58;2.13;;;1.93;;
795;SDS011;381;48.770;9.188;2023-12-20T21:39:01;4.80;;;2.57;;
795;SDS011;381;48.770;9.188;2023-12-20T21:44:03;2.50;;;2.27;;
795;SDS011;381;48.770;9.188;2023-12-20T21:49:09;2.50;;;2.30;;
795;SDS011;381;48.770;9.188;2023-12-20T21:54:11;3.43;;;2.80;;
795;SDS011;381;48.770;9.188;2023-12-20T21:59:15;2.00;;;1.90;;
795;SDS011;381;48.770;9.188;2023-12-20T22:04:18;2.07;;;1.77;;
795;SDS011;381;48.770;9.188;2023-12-20T22:09:21;3.83;;;2.43;;
795;SDS011;381;48.770;9.188;2023-12-20T22:14:23;2.07;;;1.87;;
795;SDS011;381;48.770;9.188;2023-12-20T22:19:27;3.73;;;2.47;;
795;SDS011;381;48.770;9.188;2023-12-20T22:24:30;6.80;;;2.27;;
795;SDS011;381;48.770;9.188;2023-12-20T22:29:32;2.47;;;1.80;;
795;SDS011;381;48.770;9.188;2023-12-20T22:34:36;1.83;;;1.57;;
795;SDS011;381;48.770;9.188;2023-12-20T22:39:38;2.20;;;2.07;;
795;SDS011;381;48.770;9.188;2023-12-20T22:44:40;3.63;;;2.57;;
795;SDS011;381;48.770;9.188;2023-12-20T22:49:44;2.40;;;1.80;;
795;SDS011;381;48.770;9.188;2023-12-20T22:54:47;2.30;;;2.10;;
795;SDS011;381;48.770;9.188;2023-12-20T22:59:50;2.50;;;2.30;;
795;SDS011;381;48.770;9.188;2023-12-20T23:04:54;3.70;;;2.40;;
795;SDS011;381;48.770;9.188;2023-12-20T23:09:57;3.10;;;2.80;;
795;SDS011;381;48.770;9.188;2023-12-20T23:14:59;3.33;;;2.17;;
795;SDS011;381;48.770;9.188;2023-12-20T23:20:03;2.50;;;2.13;;
795;SDS011;381;48.770;9.188;2023-12-20T23:25:06;4.10;;;2.20;;
795;SDS011;381;48.770;9.188;2023-12-20T23:30:09;2.33;;;1.90;;
795;SDS011;381;48.770;9.188;2023-12-20T23:35:13;2.33;;;2.13;;
795;SDS011;381;48.770;9.188;2023-12-20T23:40:16;2.10;;;2.00;;
795;SDS011;381;48.770;9.188;2023-12-20T23:45:18;4.43;;;2.23;;
795;SDS011;381;48.770;9.188;2023-12-20T23:50:22;3.53;;;2.17;;
795;SDS011;381;48.770;9.188;2023-12-20T23:55:24;2.40;;;2.00;;
